sensor_id;sensor_type;location;lat;lon;timestamp;P1;durP1;ratioP1;P2;durP2;ratioP2
36211;SDS011;22247;48.586;13.492;2023-06-10T00:00:54;13.75;;;7.63;;
36211;SDS011;22247;48.586;13.492;2023-06-10T00:03:20;76.25;;;8.80;;
36211;SDS011;22247;48.586;13.492;2023-06-10T00:05:47;37.47;;;7.35;;
36211;SDS011;22247;48.586;13.492;2023-06-10T00:08:13;15.20;;;6.88;;
36211;SDS011;22247;48.586;13.492;2023-06-10T00:10:43;11.30;;;6.82;;
36211;SDS011;22247;48.586;13.492;2023-06-10T00:13:08;30.55;;;7.43;;
36211;SDS011;22247;48.586;13.492;2023-06-10T00:15:35;140.85;;;9.52;;
36211;SDS011;22247;48.586;13.492;2023-06-10T00:18:00;186.43;;;11.13;;
36211;SDS011;22247;48.586;13.492;2023-06-10T00:20:26;25.60;;;7.13;;
36211;SDS011;22247;48.586;13.492;2023-06-10T00:22:54;25.13;;;8.20;;
36211;SDS011;22247;48.586;13.492;2023-06-10T00:25:20;16.02;;;7.30;;
36211;SDS011;22247;48.586;13.492;2023-06-10T00:30:10;10.95;;;7.78;;
36211;SDS011;22247;48.586;13.492;2023-06-10T00:32:36;78.85;;;7.97;;
36211;SDS011;22247;48.586;13.492;2023-06-10T00:35:04;38.88;;;7.20;;
36211;SDS011;22247;48.586;13.492;2023-06-10T00:37:29;76.28;;;8.15;;
36211;SDS011;22247;48.586;13.492;2023-06-10T00:42:19;17.23;;;6.70;;
36211;SDS011;22247;48.586;13.492;2023-06-10T00:44:46;30.13;;;6.18;;
36211;SDS011;22247;48.586;13.492;2023-06-10T00:47:11;38.08;;;6.88;;
36211;SDS011;22247;48.586;13.492;2023-06-10T00:52:02;15.47;;;6.00;;
36211;SDS011;22247;48.586;13.492;2023-06-10T00:54:28;27.50;;;5.80;;
36211;SDS011;22247;48.586;13.492;2023-06-10T00:59:18;28.77;;;8.00;;
36211;SDS011;22247;48.586;13.492;2023-06-10T01:04:11;16.25;;;6.15;;
36211;SDS011;22247;48.586;13.492;2023-06-10T01:11:32;10.75;;;6.50;;
36211;SDS011;22247;48.586;13.492;2023-06-10T01:14:00;6.57;;;5.30;;
36211;SDS011;22247;48.586;13.492;2023-06-10T01:16:26;12.45;;;5.90;;
36211;SDS011;22247;48.586;13.492;2023-06-10T01:18:52;8.13;;;4.97;;
36211;SDS011;22247;48.586;13.492;2023-06-10T01:21:22;8.10;;;5.63;;
36211;SDS011;22247;48.586;13.492;2023-06-10T01:23:48;9.05;;;6.22;;
36211;SDS011;22247;48.586;13.492;2023-06-10T01:33:33;12.45;;;7.68;;
36211;SDS011;22247;48.586;13.492;2023-06-10T01:35:59;11.15;;;7.82;;
36211;SDS011;22247;48.586;13.492;2023-06-10T01:38:26;20.13;;;9.60;;
36211;SDS011;22247;48.586;13.492;2023-06-10T01:40:52;47.70;;;10.30;;
36211;SDS011;22247;48.586;13.492;2023-06-10T01:43:18;27.73;;;9.27;;
36211;SDS011;22247;48.586;13.492;2023-06-10T01:45:44;20.63;;;8.05;;
36211;SDS011;22247;48.586;13.492;2023-06-10T01:50:34;30.83;;;8.03;;
36211;SDS011;22247;48.586;13.492;2023-06-10T01:55:26;84.68;;;11.23;;
36211;SDS011;22247;48.586;13.492;2023-06-10T01:57:51;90.10;;;11.00;;
36211;SDS011;22247;48.586;13.492;2023-06-10T02:02:41;18.73;;;8.20;;
36211;SDS011;22247;48.586;13.492;2023-06-10T02:07:31;53.38;;;9.88;;
36211;SDS011;22247;48.586;13.492;2023-06-10T02:12:21;33.75;;;9.18;;
36211;SDS011;22247;48.586;13.492;2023-06-10T02:14:46;21.52;;;7.85;;
36211;SDS011;22247;48.586;13.492;2023-06-10T02:19:39;121.80;;;9.48;;
36211;SDS011;22247;48.586;13.492;2023-06-10T02:22:06;66.40;;;10.15;;
36211;SDS011;22247;48.586;13.492;2023-06-10T02:26:56;49.97;;;10.15;;
36211;SDS011;22247;48.586;13.492;2023-06-10T02:29:23;12.38;;;7.00;;
36211;SDS011;22247;48.586;13.492;2023-06-10T02:31:51;12.95;;;6.18;;
36211;SDS011;22247;48.586;13.492;2023-06-10T02:34:16;12.90;;;6.72;;
36211;SDS011;22247;48.586;13.492;2023-06-10T02:39:06;12.00;;;5.88;;
36211;SDS011;22247;48.586;13.492;2023-06-10T02:41:31;42.00;;;5.90;;
36211;SDS011;22247;48.586;13.492;2023-06-10T02:46:21;32.00;;;7.25;;
36211;SDS011;22247;48.586;13.492;2023-06-10T02:51:13;73.40;;;8.25;;
36211;SDS011;22247;48.586;13.492;2023-06-10T02:56:03;10.75;;;6.55;;
36211;SDS011;22247;48.586;13.492;2023-06-10T03:00:53;15.43;;;7.57;;
36211;SDS011;22247;48.586;13.492;2023-06-10T03:03:18;15.10;;;7.70;;
36211;SDS011;22247;48.586;13.492;2023-06-10T03:05:44;62.10;;;8.85;;
36211;SDS011;22247;48.586;13.492;2023-06-10T03:10:34;194.90;;;11.45;;
36211;SDS011;22247;48.586;13.492;2023-06-10T03:13:01;377.50;;;16.45;;
36211;SDS011;22247;48.586;13.492;2023-06-10T03:15:29;88.35;;;9.48;;
36211;SDS011;22247;48.586;13.492;2023-06-10T03:17:56;302.60;;;13.80;;
36211;SDS011;22247;48.586;13.492;2023-06-10T03:22:47;399.40;;;16.45;;
36211;SDS011;22247;48.586;13.492;2023-06-10T03:25:12;405.02;;;17.10;;
36211;SDS011;22247;48.586;13.492;2023-06-10T03:27:41;363.33;;;15.70;;
36211;SDS011;22247;48.586;13.492;2023-06-10T03:30:08;282.60;;;16.48;;
36211;SDS011;22247;48.586;13.492;2023-06-10T03:32:36;304.42;;;19.00;;
36211;SDS011;22247;48.586;13.492;2023-06-10T03:35:01;192.38;;;12.52;;
36211;SDS011;22247;48.586;13.492;2023-06-10T03:39:51;24.83;;;9.10;;
36211;SDS011;22247;48.586;13.492;2023-06-10T03:42:16;24.08;;;8.57;;
36211;SDS011;22247;48.586;13.492;2023-06-10T03:47:06;47.55;;;9.52;;
36211;SDS011;22247;48.586;13.492;2023-06-10T03:49:31;157.23;;;12.35;;
36211;SDS011;22247;48.586;13.492;2023-06-10T03:51:57;70.10;;;8.82;;
36211;SDS011;22247;48.586;13.492;2023-06-10T03:54:22;46.20;;;7.95;;
36211;SDS011;22247;48.586;13.492;2023-06-10T03:59:12;73.53;;;8.27;;
36211;SDS011;22247;48.586;13.492;2023-06-10T04:04:05;181.65;;;11.90;;
36211;SDS011;22247;48.586;13.492;2023-06-10T04:08:58;268.23;;;12.00;;
36211;SDS011;22247;48.586;13.492;2023-06-10T04:11:26;32.83;;;6.43;;
36211;SDS011;22247;48.586;13.492;2023-06-10T04:16:16;23.13;;;6.32;;
36211;SDS011;22247;48.586;13.492;2023-06-10T04:21:06;364.33;;;15.83;;
36211;SDS011;22247;48.586;13.492;2023-06-10T04:25:55;33.60;;;7.68;;
36211;SDS011;22247;48.586;13.492;2023-06-10T04:30:45;27.23;;;7.85;;
36211;SDS011;22247;48.586;13.492;2023-06-10T04:35:35;107.88;;;10.40;;
36211;SDS011;22247;48.586;13.492;2023-06-10T04:40:28;115.97;;;9.23;;
36211;SDS011;22247;48.586;13.492;2023-06-10T04:45:17;276.80;;;15.32;;
36211;SDS011;22247;48.586;13.492;2023-06-10T04:50:08;129.57;;;10.70;;
36211;SDS011;22247;48.586;13.492;2023-06-10T04:52:33;149.95;;;11.50;;
36211;SDS011;22247;48.586;13.492;2023-06-10T04:57:22;46.33;;;9.45;;
36211;SDS011;22247;48.586;13.492;2023-06-10T04:59:50;120.70;;;11.27;;
36211;SDS011;22247;48.586;13.492;2023-06-10T05:02:15;262.77;;;15.07;;
36211;SDS011;22247;48.586;13.492;2023-06-10T05:04:43;210.18;;;12.48;;
36211;SDS011;22247;48.586;13.492;2023-06-10T05:07:10;102.50;;;10.85;;
36211;SDS011;22247;48.586;13.492;2023-06-10T05:12:01;401.70;;;18.23;;
36211;SDS011;22247;48.586;13.492;2023-06-10T05:14:26;385.90;;;15.88;;
36211;SDS011;22247;48.586;13.492;2023-06-10T05:19:17;19.25;;;8.93;;
36211;SDS011;22247;48.586;13.492;2023-06-10T05:21:42;43.20;;;9.07;;
36211;SDS011;22247;48.586;13.492;2023-06-10T05:26:35;116.72;;;11.65;;
36211;SDS011;22247;48.586;13.492;2023-06-10T05:29:05;13.90;;;8.02;;
36211;SDS011;22247;48.586;13.492;2023-06-10T05:31:31;20.92;;;9.00;;
36211;SDS011;22247;48.586;13.492;2023-06-10T05:33:56;42.85;;;9.02;;
36211;SDS011;22247;48.586;13.492;2023-06-10T05:38:46;39.47;;;8.50;;
36211;SDS011;22247;48.586;13.492;2023-06-10T05:41:11;92.45;;;9.23;;
36211;SDS011;22247;48.586;13.492;2023-06-10T05:46:01;21.87;;;8.37;;
36211;SDS011;22247;48.586;13.492;2023-06-10T05:50:53;9.53;;;6.80;;
36211;SDS011;22247;48.586;13.492;2023-06-10T05:53:18;9.88;;;6.57;;
36211;SDS011;22247;48.586;13.492;2023-06-10T05:58:08;20.60;;;7.80;;
36211;SDS011;22247;48.586;13.492;2023-06-10T06:00:33;12.45;;;7.75;;
36211;SDS011;22247;48.586;13.492;2023-06-10T06:02:58;12.20;;;7.82;;
36211;SDS011;22247;48.586;13.492;2023-06-10T06:05:25;13.05;;;8.45;;
36211;SDS011;22247;48.586;13.492;2023-06-10T06:10:18;13.48;;;8.27;;
36211;SDS011;22247;48.586;13.492;2023-06-10T06:12:43;10.65;;;7.50;;
36211;SDS011;22247;48.586;13.492;2023-06-10T06:15:09;11.52;;;8.25;;
36211;SDS011;22247;48.586;13.492;2023-06-10T06:17:34;11.57;;;7.95;;
36211;SDS011;22247;48.586;13.492;2023-06-10T06:22:24;14.03;;;9.57;;
36211;SDS011;22247;48.586;13.492;2023-06-10T06:24:49;12.15;;;8.00;;
36211;SDS011;22247;48.586;13.492;2023-06-10T06:27:15;10.60;;;7.93;;
36211;SDS011;22247;48.586;13.492;2023-06-10T06:29:40;14.40;;;8.13;;
36211;SDS011;22247;48.586;13.492;2023-06-10T06:32:07;12.65;;;8.75;;
36211;SDS011;22247;48.586;13.492;2023-06-10T06:34:32;14.43;;;8.98;;
36211;SDS011;22247;48.586;13.492;2023-06-10T06:36:57;11.73;;;7.97;;
36211;SDS011;22247;48.586;13.492;2023-06-10T06:41:53;13.57;;;8.70;;
36211;SDS011;22247;48.586;13.492;2023-06-10T06:44:18;15.30;;;8.40;;
36211;SDS011;22247;48.586;13.492;2023-06-10T06:46:43;14.77;;;7.90;;
36211;SDS011;22247;48.586;13.492;2023-06-10T06:49:08;10.55;;;7.95;;
36211;SDS011;22247;48.586;13.492;2023-06-10T06:53:57;14.33;;;8.63;;
36211;SDS011;22247;48.586;13.492;2023-06-10T06:56:25;12.50;;;7.80;;
36211;SDS011;22247;48.586;13.492;2023-06-10T06:58:52;11.48;;;7.97;;
36211;SDS011;22247;48.586;13.492;2023-06-10T07:01:17;11.68;;;8.20;;
36211;SDS011;22247;48.586;13.492;2023-06-10T07:06:06;16.20;;;8.80;;
36211;SDS011;22247;48.586;13.492;2023-06-10T07:10:56;13.37;;;8.77;;
36211;SDS011;22247;48.586;13.492;2023-06-10T07:13:24;12.20;;;8.10;;
36211;SDS011;22247;48.586;13.492;2023-06-10T07:15:49;12.70;;;8.70;;
36211;SDS011;22247;48.586;13.492;2023-06-10T07:18:14;13.73;;;8.63;;
36211;SDS011;22247;48.586;13.492;2023-06-10T07:20:42;13.07;;;9.02;;
36211;SDS011;22247;48.586;13.492;2023-06-10T07:23:07;12.40;;;8.68;;
36211;SDS011;22247;48.586;13.492;2023-06-10T07:25:35;10.30;;;7.57;;
36211;SDS011;22247;48.586;13.492;2023-06-10T07:28:00;13.27;;;7.25;;
36211;SDS011;22247;48.586;13.492;2023-06-10T07:30:25;10.15;;;7.38;;
36211;SDS011;22247;48.586;13.492;2023-06-10T07:32:50;10.07;;;7.63;;
36211;SDS011;22247;48.586;13.492;2023-06-10T07:35:15;8.95;;;6.82;;
36211;SDS011;22247;48.586;13.492;2023-06-10T07:37:41;8.38;;;6.75;;
36211;SDS011;22247;48.586;13.492;2023-06-10T07:40:06;11.00;;;7.57;;
36211;SDS011;22247;48.586;13.492;2023-06-10T07:42:31;8.48;;;6.72;;
36211;SDS011;22247;48.586;13.492;2023-06-10T07:44:57;9.70;;;6.95;;
36211;SDS011;22247;48.586;13.492;2023-06-10T07:47:22;11.25;;;8.80;;
36211;SDS011;22247;48.586;13.492;2023-06-10T07:49:47;9.52;;;7.38;;
36211;SDS011;22247;48.586;13.492;2023-06-10T07:52:12;10.63;;;7.75;;
36211;SDS011;22247;48.586;13.492;2023-06-10T07:54:37;9.85;;;6.88;;
36211;SDS011;22247;48.586;13.492;2023-06-10T07:57:02;12.55;;;7.40;;
36211;SDS011;22247;48.586;13.492;2023-06-10T07:59:27;9.95;;;7.95;;
36211;SDS011;22247;48.586;13.492;2023-06-10T08:01:52;10.65;;;7.47;;
36211;SDS011;22247;48.586;13.492;2023-06-10T08:04:20;9.80;;;6.70;;
36211;SDS011;22247;48.586;13.492;2023-06-10T08:06:48;14.93;;;7.63;;
36211;SDS011;22247;48.586;13.492;2023-06-10T08:09:13;10.75;;;7.65;;
36211;SDS011;22247;48.586;13.492;2023-06-10T08:11:38;10.63;;;7.43;;
36211;SDS011;22247;48.586;13.492;2023-06-10T08:14:03;12.43;;;7.70;;
36211;SDS011;22247;48.586;13.492;2023-06-10T08:16:30;9.25;;;7.80;;
36211;SDS011;22247;48.586;13.492;2023-06-10T08:18:57;10.38;;;7.97;;
36211;SDS011;22247;48.586;13.492;2023-06-10T08:21:22;9.85;;;7.93;;
36211;SDS011;22247;48.586;13.492;2023-06-10T08:23:47;11.57;;;8.55;;
36211;SDS011;22247;48.586;13.492;2023-06-10T08:26:12;13.35;;;8.85;;
36211;SDS011;22247;48.586;13.492;2023-06-10T08:28:37;10.77;;;8.55;;
36211;SDS011;22247;48.586;13.492;2023-06-10T08:31:02;12.18;;;8.32;;
36211;SDS011;22247;48.586;13.492;2023-06-10T08:33:27;12.65;;;7.68;;
36211;SDS011;22247;48.586;13.492;2023-06-10T08:35:52;10.57;;;8.75;;
36211;SDS011;22247;48.586;13.492;2023-06-10T08:38:17;10.40;;;7.53;;
36211;SDS011;22247;48.586;13.492;2023-06-10T08:40:42;11.55;;;8.43;;
36211;SDS011;22247;48.586;13.492;2023-06-10T08:43:08;10.23;;;8.07;;
36211;SDS011;22247;48.586;13.492;2023-06-10T08:45:36;11.63;;;8.55;;
36211;SDS011;22247;48.586;13.492;2023-06-10T08:48:04;12.45;;;7.90;;
36211;SDS011;22247;48.586;13.492;2023-06-10T08:50:36;13.95;;;8.38;;
36211;SDS011;22247;48.586;13.492;2023-06-10T08:53:04;9.02;;;6.72;;
36211;SDS011;22247;48.586;13.492;2023-06-10T08:55:30;10.10;;;7.07;;
36211;SDS011;22247;48.586;13.492;2023-06-10T08:57:56;7.97;;;7.10;;
36211;SDS011;22247;48.586;13.492;2023-06-10T09:00:22;7.60;;;6.53;;
36211;SDS011;22247;48.586;13.492;2023-06-10T09:02:49;9.77;;;7.65;;
36211;SDS011;22247;48.586;13.492;2023-06-10T09:05:15;12.02;;;7.32;;
36211;SDS011;22247;48.586;13.492;2023-06-10T09:07:40;11.65;;;7.88;;
36211;SDS011;22247;48.586;13.492;2023-06-10T09:10:05;10.02;;;7.90;;
36211;SDS011;22247;48.586;13.492;2023-06-10T09:12:31;10.20;;;7.05;;
36211;SDS011;22247;48.586;13.492;2023-06-10T09:14:56;9.60;;;7.55;;
36211;SDS011;22247;48.586;13.492;2023-06-10T09:17:21;8.68;;;6.35;;
36211;SDS011;22247;48.586;13.492;2023-06-10T09:19:46;9.57;;;7.47;;
36211;SDS011;22247;48.586;13.492;2023-06-10T09:22:12;8.95;;;6.82;;
36211;SDS011;22247;48.586;13.492;2023-06-10T09:24:39;9.15;;;7.18;;
36211;SDS011;22247;48.586;13.492;2023-06-10T09:27:12;10.00;;;7.60;;
36211;SDS011;22247;48.586;13.492;2023-06-10T09:29:47;8.73;;;6.85;;
36211;SDS011;22247;48.586;13.492;2023-06-10T09:32:15;8.77;;;6.70;;
36211;SDS011;22247;48.586;13.492;2023-06-10T09:34:44;8.35;;;6.50;;
36211;SDS011;22247;48.586;13.492;2023-06-10T09:37:10;8.38;;;6.85;;
36211;SDS011;22247;48.586;13.492;2023-06-10T09:42:29;9.32;;;6.32;;
36211;SDS011;22247;48.586;13.492;2023-06-10T09:44:56;8.32;;;6.53;;
36211;SDS011;22247;48.586;13.492;2023-06-10T09:47:22;12.70;;;7.03;;
36211;SDS011;22247;48.586;13.492;2023-06-10T09:49:49;7.93;;;6.85;;
36211;SDS011;22247;48.586;13.492;2023-06-10T09:52:29;7.93;;;6.68;;
36211;SDS011;22247;48.586;13.492;2023-06-10T09:54:55;11.85;;;7.22;;
36211;SDS011;22247;48.586;13.492;2023-06-10T09:57:23;7.25;;;6.55;;
36211;SDS011;22247;48.586;13.492;2023-06-10T09:59:51;9.55;;;6.30;;
36211;SDS011;22247;48.586;13.492;2023-06-10T10:02:20;9.00;;;7.40;;
36211;SDS011;22247;48.586;13.492;2023-06-10T10:04:45;8.20;;;6.70;;
36211;SDS011;22247;48.586;13.492;2023-06-10T10:07:11;9.18;;;6.70;;
36211;SDS011;22247;48.586;13.492;2023-06-10T10:09:39;8.05;;;6.85;;
36211;SDS011;22247;48.586;13.492;2023-06-10T10:12:12;7.47;;;6.40;;
36211;SDS011;22247;48.586;13.492;2023-06-10T10:14:41;6.72;;;5.68;;
36211;SDS011;22247;48.586;13.492;2023-06-10T10:17:14;8.25;;;6.50;;
36211;SDS011;22247;48.586;13.492;2023-06-10T10:19:48;8.60;;;6.22;;
36211;SDS011;22247;48.586;13.492;2023-06-10T10:22:17;7.30;;;6.03;;
36211;SDS011;22247;48.586;13.492;2023-06-10T10:24:50;8.15;;;6.68;;
36211;SDS011;22247;48.586;13.492;2023-06-10T10:27:40;6.78;;;6.05;;
36211;SDS011;22247;48.586;13.492;2023-06-10T10:30:01;8.60;;;6.43;;
36211;SDS011;22247;48.586;13.492;2023-06-10T10:32:34;7.32;;;5.60;;
36211;SDS011;22247;48.586;13.492;2023-06-10T10:35:10;7.90;;;5.57;;
36211;SDS011;22247;48.586;13.492;2023-06-10T10:37:40;7.05;;;5.53;;
36211;SDS011;22247;48.586;13.492;2023-06-10T10:40:05;7.30;;;5.57;;
36211;SDS011;22247;48.586;13.492;2023-06-10T10:42:31;7.05;;;6.00;;
36211;SDS011;22247;48.586;13.492;2023-06-10T10:44:56;7.22;;;5.32;;
36211;SDS011;22247;48.586;13.492;2023-06-10T10:47:22;6.95;;;5.47;;
36211;SDS011;22247;48.586;13.492;2023-06-10T10:49:53;6.45;;;5.32;;
36211;SDS011;22247;48.586;13.492;2023-06-10T10:52:18;7.43;;;5.75;;
36211;SDS011;22247;48.586;13.492;2023-06-10T10:54:43;7.65;;;5.47;;
36211;SDS011;22247;48.586;13.492;2023-06-10T10:57:21;7.22;;;5.60;;
36211;SDS011;22247;48.586;13.492;2023-06-10T11:02:18;11.20;;;7.07;;
36211;SDS011;22247;48.586;13.492;2023-06-10T11:04:47;8.65;;;6.43;;
36211;SDS011;22247;48.586;13.492;2023-06-10T11:07:12;8.40;;;6.10;;
36211;SDS011;22247;48.586;13.492;2023-06-10T11:09:56;7.18;;;5.45;;
36211;SDS011;22247;48.586;13.492;2023-06-10T11:12:22;8.63;;;5.97;;
36211;SDS011;22247;48.586;13.492;2023-06-10T11:14:54;9.35;;;5.97;;
36211;SDS011;22247;48.586;13.492;2023-06-10T11:17:22;8.85;;;6.00;;
36211;SDS011;22247;48.586;13.492;2023-06-10T11:19:47;6.35;;;5.55;;
36211;SDS011;22247;48.586;13.492;2023-06-10T11:22:18;6.88;;;5.47;;
36211;SDS011;22247;48.586;13.492;2023-06-10T11:24:47;8.20;;;4.95;;
36211;SDS011;22247;48.586;13.492;2023-06-10T11:27:22;5.20;;;4.45;;
36211;SDS011;22247;48.586;13.492;2023-06-10T11:29:57;5.47;;;4.63;;
36211;SDS011;22247;48.586;13.492;2023-06-10T11:32:28;5.82;;;3.67;;
36211;SDS011;22247;48.586;13.492;2023-06-10T11:34:54;5.28;;;3.97;;
36211;SDS011;22247;48.586;13.492;2023-06-10T11:37:20;5.00;;;3.80;;
36211;SDS011;22247;48.586;13.492;2023-06-10T11:39:46;5.13;;;3.83;;
36211;SDS011;22247;48.586;13.492;2023-06-10T11:42:13;3.67;;;3.38;;
36211;SDS011;22247;48.586;13.492;2023-06-10T11:44:46;4.25;;;3.35;;
36211;SDS011;22247;48.586;13.492;2023-06-10T11:47:11;4.97;;;3.95;;
36211;SDS011;22247;48.586;13.492;2023-06-10T11:49:37;4.70;;;4.18;;
36211;SDS011;22247;48.586;13.492;2023-06-10T11:52:04;4.50;;;3.90;;
36211;SDS011;22247;48.586;13.492;2023-06-10T11:54:29;5.35;;;4.20;;
36211;SDS011;22247;48.586;13.492;2023-06-10T11:56:57;6.32;;;4.22;;
36211;SDS011;22247;48.586;13.492;2023-06-10T11:59:26;6.90;;;4.28;;
36211;SDS011;22247;48.586;13.492;2023-06-10T12:01:54;5.72;;;4.28;;
36211;SDS011;22247;48.586;13.492;2023-06-10T12:04:19;7.60;;;4.32;;
36211;SDS011;22247;48.586;13.492;2023-06-10T12:06:44;7.78;;;4.97;;
36211;SDS011;22247;48.586;13.492;2023-06-10T12:11:40;6.68;;;4.90;;
36211;SDS011;22247;48.586;13.492;2023-06-10T12:14:05;7.90;;;4.90;;
36211;SDS011;22247;48.586;13.492;2023-06-10T12:16:30;4.90;;;4.40;;
36211;SDS011;22247;48.586;13.492;2023-06-10T12:19:00;7.65;;;4.85;;
36211;SDS011;22247;48.586;13.492;2023-06-10T12:21:26;7.25;;;5.72;;
36211;SDS011;22247;48.586;13.492;2023-06-10T12:24:04;7.32;;;5.38;;
36211;SDS011;22247;48.586;13.492;2023-06-10T12:26:36;9.43;;;5.85;;
36211;SDS011;22247;48.586;13.492;2023-06-10T12:29:02;8.13;;;5.78;;
36211;SDS011;22247;48.586;13.492;2023-06-10T12:31:27;8.40;;;5.50;;
36211;SDS011;22247;48.586;13.492;2023-06-10T12:34:07;7.63;;;5.13;;
36211;SDS011;22247;48.586;13.492;2023-06-10T12:36:32;7.47;;;5.65;;
36211;SDS011;22247;48.586;13.492;2023-06-10T12:39:02;8.05;;;5.97;;
36211;SDS011;22247;48.586;13.492;2023-06-10T12:41:28;7.45;;;5.55;;
36211;SDS011;22247;48.586;13.492;2023-06-10T12:43:53;6.70;;;5.82;;
36211;SDS011;22247;48.586;13.492;2023-06-10T12:46:18;7.90;;;5.07;;
36211;SDS011;22247;48.586;13.492;2023-06-10T12:48:50;9.45;;;6.05;;
36211;SDS011;22247;48.586;13.492;2023-06-10T12:51:19;6.80;;;5.65;;
36211;SDS011;22247;48.586;13.492;2023-06-10T12:53:44;13.20;;;6.40;;
36211;SDS011;22247;48.586;13.492;2023-06-10T12:56:09;7.88;;;5.75;;
36211;SDS011;22247;48.586;13.492;2023-06-10T12:58:34;12.15;;;6.55;;
36211;SDS011;22247;48.586;13.492;2023-06-10T13:00:59;9.43;;;6.22;;
36211;SDS011;22247;48.586;13.492;2023-06-10T13:03:24;11.93;;;6.20;;
36211;SDS011;22247;48.586;13.492;2023-06-10T13:05:48;12.75;;;6.60;;
36211;SDS011;22247;48.586;13.492;2023-06-10T13:08:14;8.05;;;6.47;;
36211;SDS011;22247;48.586;13.492;2023-06-10T13:10:39;11.07;;;7.05;;
36211;SDS011;22247;48.586;13.492;2023-06-10T13:13:04;8.18;;;6.65;;
36211;SDS011;22247;48.586;13.492;2023-06-10T13:15:32;8.80;;;6.50;;
36211;SDS011;22247;48.586;13.492;2023-06-10T13:18:00;11.05;;;6.50;;
36211;SDS011;22247;48.586;13.492;2023-06-10T13:20:25;9.52;;;6.38;;
36211;SDS011;22247;48.586;13.492;2023-06-10T13:22:52;9.80;;;6.40;;
36211;SDS011;22247;48.586;13.492;2023-06-10T13:25:19;12.05;;;6.60;;
36211;SDS011;22247;48.586;13.492;2023-06-10T13:27:44;11.20;;;6.50;;
36211;SDS011;22247;48.586;13.492;2023-06-10T13:30:09;11.85;;;6.65;;
36211;SDS011;22247;48.586;13.492;2023-06-10T13:32:35;10.57;;;6.60;;
36211;SDS011;22247;48.586;13.492;2023-06-10T13:35:00;8.32;;;6.32;;
36211;SDS011;22247;48.586;13.492;2023-06-10T13:37:25;9.55;;;6.95;;
36211;SDS011;22247;48.586;13.492;2023-06-10T13:39:50;9.27;;;6.57;;
36211;SDS011;22247;48.586;13.492;2023-06-10T13:42:16;9.23;;;6.80;;
36211;SDS011;22247;48.586;13.492;2023-06-10T13:44:41;11.20;;;6.43;;
36211;SDS011;22247;48.586;13.492;2023-06-10T13:47:06;7.30;;;6.00;;
36211;SDS011;22247;48.586;13.492;2023-06-10T13:49:31;9.43;;;6.03;;
36211;SDS011;22247;48.586;13.492;2023-06-10T13:51:56;11.13;;;6.40;;
36211;SDS011;22247;48.586;13.492;2023-06-10T13:54:21;8.80;;;6.20;;
36211;SDS011;22247;48.586;13.492;2023-06-10T13:56:47;12.60;;;6.22;;
36211;SDS011;22247;48.586;13.492;2023-06-10T13:59:12;10.38;;;6.03;;
36211;SDS011;22247;48.586;13.492;2023-06-10T14:01:37;10.82;;;7.38;;
36211;SDS011;22247;48.586;13.492;2023-06-10T14:04:04;8.73;;;6.85;;
36211;SDS011;22247;48.586;13.492;2023-06-10T14:06:30;9.85;;;6.57;;
36211;SDS011;22247;48.586;13.492;2023-06-10T14:08:56;10.98;;;7.40;;
36211;SDS011;22247;48.586;13.492;2023-06-10T14:11:21;10.05;;;6.78;;
36211;SDS011;22247;48.586;13.492;2023-06-10T14:13:46;7.45;;;6.10;;
36211;SDS011;22247;48.586;13.492;2023-06-10T14:16:11;8.95;;;6.32;;
36211;SDS011;22247;48.586;13.492;2023-06-10T14:18:36;8.45;;;6.15;;
36211;SDS011;22247;48.586;13.492;2023-06-10T14:21:01;10.30;;;6.35;;
36211;SDS011;22247;48.586;13.492;2023-06-10T14:23:26;7.88;;;5.45;;
36211;SDS011;22247;48.586;13.492;2023-06-10T14:25:51;7.45;;;5.10;;
36211;SDS011;22247;48.586;13.492;2023-06-10T14:28:19;10.52;;;5.22;;
36211;SDS011;22247;48.586;13.492;2023-06-10T14:30:44;11.90;;;5.10;;
36211;SDS011;22247;48.586;13.492;2023-06-10T14:33:09;9.77;;;5.40;;
36211;SDS011;22247;48.586;13.492;2023-06-10T14:35:34;7.75;;;6.00;;
36211;SDS011;22247;48.586;13.492;2023-06-10T14:37:59;9.30;;;5.70;;
36211;SDS011;22247;48.586;13.492;2023-06-10T15:15:39;15.00;;;8.60;;
36211;SDS011;22247;48.586;13.492;2023-06-10T15:18:04;15.25;;;8.73;;
36211;SDS011;22247;48.586;13.492;2023-06-10T15:22:54;11.60;;;7.73;;
36211;SDS011;22247;48.586;13.492;2023-06-10T15:25:19;13.85;;;8.48;;
36211;SDS011;22247;48.586;13.492;2023-06-10T15:27:44;12.38;;;7.78;;
36211;SDS011;22247;48.586;13.492;2023-06-10T15:32:34;18.30;;;9.77;;
36211;SDS011;22247;48.586;13.492;2023-06-10T15:34:59;15.27;;;8.90;;
36211;SDS011;22247;48.586;13.492;2023-06-10T15:39:49;17.00;;;9.83;;
36211;SDS011;22247;48.586;13.492;2023-06-10T15:42:14;16.30;;;9.50;;
36211;SDS011;22247;48.586;13.492;2023-06-10T15:44:39;13.98;;;10.05;;
36211;SDS011;22247;48.586;13.492;2023-06-10T15:49:31;20.05;;;11.07;;
36211;SDS011;22247;48.586;13.492;2023-06-10T15:54:21;13.90;;;9.57;;
36211;SDS011;22247;48.586;13.492;2023-06-10T15:56:46;17.65;;;11.07;;
36211;SDS011;22247;48.586;13.492;2023-06-10T16:01:36;17.20;;;9.50;;
36211;SDS011;22247;48.586;13.492;2023-06-10T16:04:01;16.15;;;10.70;;
36211;SDS011;22247;48.586;13.492;2023-06-10T16:08:51;18.30;;;10.40;;
36211;SDS011;22247;48.586;13.492;2023-06-10T16:13:41;15.80;;;9.87;;
36211;SDS011;22247;48.586;13.492;2023-06-10T16:18:31;16.37;;;9.80;;
36211;SDS011;22247;48.586;13.492;2023-06-10T16:20:56;17.77;;;10.73;;
36211;SDS011;22247;48.586;13.492;2023-06-10T16:23:21;15.95;;;10.93;;
36211;SDS011;22247;48.586;13.492;2023-06-10T16:25:46;18.55;;;10.93;;
36211;SDS011;22247;48.586;13.492;2023-06-10T16:28:13;14.68;;;11.18;;
36211;SDS011;22247;48.586;13.492;2023-06-10T16:30:38;19.98;;;11.98;;
36211;SDS011;22247;48.586;13.492;2023-06-10T16:33:03;16.50;;;10.77;;
36211;SDS011;22247;48.586;13.492;2023-06-10T16:35:29;17.27;;;10.68;;
36211;SDS011;22247;48.586;13.492;2023-06-10T16:37:54;14.43;;;10.52;;
36211;SDS011;22247;48.586;13.492;2023-06-10T16:40:19;15.23;;;10.95;;
36211;SDS011;22247;48.586;13.492;2023-06-10T16:42:44;14.40;;;10.30;;
36211;SDS011;22247;48.586;13.492;2023-06-10T16:45:09;16.33;;;10.85;;
36211;SDS011;22247;48.586;13.492;2023-06-10T16:47:34;16.65;;;11.05;;
36211;SDS011;22247;48.586;13.492;2023-06-10T16:49:59;16.13;;;11.95;;
36211;SDS011;22247;48.586;13.492;2023-06-10T16:52:25;18.38;;;11.60;;
36211;SDS011;22247;48.586;13.492;2023-06-10T16:54:50;17.23;;;11.60;;
36211;SDS011;22247;48.586;13.492;2023-06-10T16:57:15;16.98;;;11.18;;
36211;SDS011;22247;48.586;13.492;2023-06-10T16:59:42;17.65;;;11.20;;
36211;SDS011;22247;48.586;13.492;2023-06-10T17:02:07;14.43;;;10.70;;
36211;SDS011;22247;48.586;13.492;2023-06-10T17:04:32;14.48;;;10.52;;
36211;SDS011;22247;48.586;13.492;2023-06-10T17:09:22;17.67;;;10.40;;
36211;SDS011;22247;48.586;13.492;2023-06-10T17:11:47;14.70;;;10.13;;
36211;SDS011;22247;48.586;13.492;2023-06-10T17:14:12;15.30;;;10.98;;
36211;SDS011;22247;48.586;13.492;2023-06-10T17:16:37;14.38;;;10.73;;
36211;SDS011;22247;48.586;13.492;2023-06-10T17:19:02;14.85;;;10.80;;
36211;SDS011;22247;48.586;13.492;2023-06-10T17:21:27;20.05;;;11.25;;
36211;SDS011;22247;48.586;13.492;2023-06-10T17:23:55;16.23;;;11.52;;
36211;SDS011;22247;48.586;13.492;2023-06-10T17:26:34;16.10;;;10.98;;
36211;SDS011;22247;48.586;13.492;2023-06-10T17:31:56;16.27;;;11.38;;